Time;durP1;ratioP1;P1;durP2;ratioP2;P2;SDS_P1;SDS_P2;PMS_P1;PMS_P2;Temp;Humidity;BMP_temperature;BMP_pressure;BME280_temperature;BME280_humidity;BME280_pressure;Samples;Min_cycle;Max_cycle;Signal;HPM_P1;HPM_P2
2021/10/21 00:02:16;;;;;;;6.87;3.77;;;14.80;99.90;;;;;;5046646;28;20232;-69
2021/10/21 00:04:43;;;;;;;5.20;4.70;;;14.90;99.90;;;;;;5041657;28;20260;-69
2021/10/21 00:07:10;;;;;;;5.90;4.43;;;14.90;99.90;;;;;;5026351;28;20416;-68
2021/10/21 00:09:36;;;;;;;4.90;4.40;;;14.90;99.90;;;;;;5028429;28;20181;-69
2021/10/21 00:12:05;;;;;;;4.73;4.20;;;14.80;99.90;;;;;;5030745;28;20511;-69
2021/10/21 00:14:31;;;;;;;5.37;4.90;;;14.80;99.90;;;;;;5030550;28;20464;-68
2021/10/21 00:16:57;;;;;;;5.67;4.77;;;14.80;99.90;;;;;;5029551;28;20432;-68
2021/10/21 00:19:23;;;;;;;5.93;4.33;;;14.80;99.90;;;;;;5030573;28;20444;-68
2021/10/21 00:21:49;;;;;;;5.30;4.53;;;14.70;99.90;;;;;;5030557;28;20450;-68
2021/10/21 00:24:16;;;;;;;5.27;4.50;;;14.70;99.90;;;;;;5030523;28;20194;-68
2021/10/21 00:26:42;;;;;;;4.97;4.10;;;14.70;99.90;;;;;;5030143;28;20439;-68
2021/10/21 00:29:07;;;;;;;7.27;4.87;;;14.70;99.90;;;;;;5048969;28;20435;-68
2021/10/21 00:31:33;;;;;;;5.00;4.47;;;14.60;99.90;;;;;;5050014;28;20178;-68
2021/10/21 00:33:59;;;;;;;10.60;4.53;;;14.60;99.90;;;;;;5049186;28;20360;-69
2021/10/21 00:36:25;;;;;;;5.30;4.80;;;14.60;99.90;;;;;;5050076;28;20483;-69
2021/10/21 00:38:50;;;;;;;5.23;4.73;;;14.60;99.90;;;;;;5048672;28;20194;-68
2021/10/21 00:41:16;;;;;;;4.70;4.20;;;14.50;99.90;;;;;;5050024;28;20243;-69
2021/10/21 00:43:42;;;;;;;7.10;5.37;;;14.50;99.90;;;;;;5049942;28;20165;-68
2021/10/21 00:46:10;;;;;;;5.00;4.47;;;14.50;99.90;;;;;;5049978;28;20165;-68
2021/10/21 00:48:36;;;;;;;7.13;5.40;;;14.50;99.90;;;;;;5049405;28;20541;-69
2021/10/21 00:51:06;;;;;;;4.90;3.70;;;14.50;99.90;;;;;;5049813;28;20673;-68
2021/10/21 00:53:33;;;;;;;4.63;4.23;;;14.50;99.90;;;;;;5037890;28;20728;-68
2021/10/21 00:56:00;;;;;;;4.73;3.80;;;14.40;99.90;;;;;;5063613;28;20673;-69
2021/10/21 00:58:27;;;;;;;5.87;3.83;;;14.40;99.90;;;;;;5049410;28;20620;-69
2021/10/21 01:00:53;;;;;;;3.93;3.57;;;14.40;99.90;;;;;;5049644;28;20439;-69
2021/10/21 01:03:19;;;;;;;5.53;4.20;;;14.40;99.90;;;;;;5049430;28;20399;-69
2021/10/21 01:05:45;;;;;;;3.90;3.50;;;14.40;99.90;;;;;;5049639;28;20488;-70
2021/10/21 01:08:12;;;;;;;3.23;2.93;;;14.40;99.90;;;;;;5049295;28;20193;-70
2021/10/21 01:10:38;;;;;;;3.73;3.40;;;14.40;99.90;;;;;;5049527;28;20407;-70
2021/10/21 01:13:05;;;;;;;4.90;3.70;;;14.40;99.90;;;;;;5049384;28;20403;-69
2021/10/21 01:15:31;;;;;;;5.40;3.77;;;14.40;99.90;;;;;;5048636;28;20445;-69
2021/10/21 01:17:57;;;;;;;5.03;3.93;;;14.40;99.90;;;;;;5048949;28;20438;-69
2021/10/21 01:20:25;;;;;;;4.07;3.40;;;14.40;99.90;;;;;;5048725;28;20622;-69
2021/10/21 01:22:51;;;;;;;4.77;4.03;;;14.40;99.90;;;;;;5048972;28;20578;-70
2021/10/21 01:25:18;;;;;;;5.17;3.70;;;14.40;99.90;;;;;;5049128;28;20404;-70
2021/10/21 01:27:46;;;;;;;3.60;3.30;;;14.40;99.90;;;;;;5048896;28;20390;-70
2021/10/21 01:30:21;;;;;;;4.57;4.10;;;14.50;99.90;;;;;;5049086;28;20408;-69
2021/10/21 01:32:47;;;;;;;4.60;4.20;;;14.50;99.90;;;;;;5049045;28;20379;-68
2021/10/21 01:35:14;;;;;;;4.57;3.57;;;14.50;99.90;;;;;;5048978;28;20533;-70
2021/10/21 01:37:39;;;;;;;4.57;4.17;;;14.50;99.90;;;;;;5048681;28;20744;-69
2021/10/21 01:40:10;;;;;;;5.90;4.70;;;14.40;99.90;;;;;;5048837;28;20394;-70
2021/10/21 01:42:36;;;;;;;4.40;4.00;;;14.40;99.90;;;;;;5048894;28;20437;-70
2021/10/21 01:45:02;;;;;;;5.27;3.60;;;14.40;99.90;;;;;;5040499;28;20425;-68
2021/10/21 01:47:27;;;;;;;3.57;3.00;;;14.40;99.90;;;;;;5027694;28;20426;-70
2021/10/21 01:49:53;;;;;;;5.10;3.80;;;14.40;99.90;;;;;;5028936;28;20177;-68
2021/10/21 01:52:18;;;;;;;3.97;3.63;;;14.40;99.90;;;;;;5028860;28;20170;-69
2021/10/21 01:54:44;;;;;;;4.20;3.80;;;14.30;99.90;;;;;;5028596;28;20221;-69
2021/10/21 01:57:10;;;;;;;4.00;3.53;;;14.30;99.90;;;;;;5043800;28;20174;-69
2021/10/21 01:59:35;;;;;;;4.40;3.10;;;14.30;99.90;;;;;;5047615;28;20208;-70
2021/10/21 02:02:01;;;;;;;3.50;3.20;;;14.30;99.90;;;;;;5045110;28;20349;-70
2021/10/21 02:04:27;;;;;;;2.77;2.57;;;14.30;99.90;;;;;;5028628;28;20382;-70
2021/10/21 02:06:52;;;;;;;3.63;3.13;;;14.30;99.90;;;;;;5028175;28;20178;-70
2021/10/21 02:09:18;;;;;;;2.93;2.43;;;14.40;99.90;;;;;;5029206;28;20233;-69
2021/10/21 02:11:43;;;;;;;5.90;4.00;;;14.40;99.90;;;;;;5048335;28;20296;-71
2021/10/21 02:14:09;;;;;;;3.60;3.30;;;14.50;99.90;;;;;;5048133;28;20208;-70
2021/10/21 02:16:34;;;;;;;3.93;3.57;;;14.50;99.90;;;;;;5047999;28;20259;-70
2021/10/21 02:19:00;;;;;;;4.33;3.90;;;14.50;99.90;;;;;;5048258;28;20200;-69
2021/10/21 02:21:26;;;;;;;4.10;3.53;;;14.50;99.90;;;;;;5048206;28;20369;-69
2021/10/21 02:23:51;;;;;;;3.67;3.07;;;14.50;99.90;;;;;;5048191;28;20396;-70
2021/10/21 02:26:17;;;;;;;3.27;2.97;;;14.40;99.90;;;;;;5048011;28;20181;-69
2021/10/21 02:28:43;;;;;;;3.77;3.40;;;14.40;99.90;;;;;;5042178;28;20220;-70
2021/10/21 02:31:08;;;;;;;3.43;3.13;;;14.40;99.90;;;;;;5028177;28;20173;-70
2021/10/21 02:33:34;;;;;;;3.37;3.07;;;14.40;99.90;;;;;;5026939;28;20426;-68
2021/10/21 02:36:00;;;;;;;4.10;2.87;;;14.40;99.90;;;;;;5028173;28;20170;-68
2021/10/21 02:38:26;;;;;;;3.23;2.93;;;14.50;99.90;;;;;;5027614;28;20451;-68
2021/10/21 02:40:51;;;;;;;2.73;2.40;;;14.50;99.90;;;;;;5027866;28;20201;-71
2021/10/21 02:43:17;;;;;;;2.70;2.50;;;14.50;99.90;;;;;;5027787;28;20173;-68
2021/10/21 02:45:43;;;;;;;3.43;3.13;;;14.50;99.90;;;;;;5027801;28;20178;-69
2021/10/21 02:48:08;;;;;;;2.57;2.37;;;14.60;99.90;;;;;;5027394;28;20189;-68
2021/10/21 02:50:34;;;;;;;4.20;2.90;;;14.60;99.90;;;;;;5035860;28;20197;-68
2021/10/21 02:52:59;;;;;;;2.60;2.40;;;14.60;99.90;;;;;;5047242;28;20177;-69
2021/10/21 02:55:25;;;;;;;3.03;2.50;;;14.70;99.90;;;;;;5045917;28;20231;-68
2021/10/21 02:57:51;;;;;;;3.20;2.90;;;14.70;99.90;;;;;;5030075;28;20204;-68
2021/10/21 03:00:18;;;;;;;2.40;2.30;;;14.80;99.90;;;;;;5047127;28;20176;-68
2021/10/21 03:02:43;;;;;;;3.60;3.27;;;14.80;99.90;;;;;;5047142;28;20252;-68
2021/10/21 03:05:10;;;;;;;3.40;3.10;;;14.80;99.90;;;;;;5047232;28;20540;-68
2021/10/21 03:07:35;;;;;;;2.20;2.00;;;14.80;99.90;;;;;;5046978;28;20356;-68
2021/10/21 03:10:01;;;;;;;2.53;2.30;;;14.80;99.90;;;;;;5047120;28;20440;-68
2021/10/21 03:12:27;;;;;;;2.93;2.63;;;14.80;99.90;;;;;;5047154;28;20169;-68
2021/10/21 03:14:52;;;;;;;3.43;3.00;;;14.80;99.90;;;;;;5047075;28;20523;-68
2021/10/21 03:17:18;;;;;;;4.83;3.00;;;14.90;99.90;;;;;;5036721;28;20181;-68
2021/10/21 03:19:44;;;;;;;2.10;1.70;;;14.90;99.90;;;;;;5027289;28;20185;-69
2021/10/21 03:22:09;;;;;;;2.50;2.27;;;14.90;99.90;;;;;;5027397;28;20406;-68
2021/10/21 03:24:36;;;;;;;2.60;2.40;;;15.00;99.90;;;;;;5027215;28;20314;-68
2021/10/21 03:27:02;;;;;;;3.00;2.70;;;15.10;99.90;;;;;;5026937;28;20169;-68
2021/10/21 03:29:27;;;;;;;2.67;2.40;;;15.10;99.90;;;;;;5027064;28;20487;-68
2021/10/21 03:31:53;;;;;;;2.00;1.70;;;15.10;99.90;;;;;;5027122;28;20177;-68
2021/10/21 03:34:18;;;;;;;2.20;2.00;;;15.20;99.90;;;;;;5028085;28;20216;-68
2021/10/21 03:36:44;;;;;;;1.97;1.87;;;15.20;99.90;;;;;;5026826;28;20193;-68
2021/10/21 03:39:10;;;;;;;4.10;2.63;;;15.10;99.90;;;;;;5026941;28;20411;-68
2021/10/21 03:41:35;;;;;;;3.17;2.23;;;15.10;99.90;;;;;;5027036;28;20169;-68
2021/10/21 03:44:01;;;;;;;2.93;2.33;;;15.00;99.90;;;;;;5026667;28;20212;-69
2021/10/21 03:46:27;;;;;;;2.33;1.97;;;15.00;99.90;;;;;;5027158;28;20174;-68
2021/10/21 03:48:52;;;;;;;2.80;2.60;;;15.00;99.90;;;;;;5026368;28;20198;-68
2021/10/21 03:51:18;;;;;;;2.63;2.30;;;14.90;99.90;;;;;;5026044;28;20182;-68
2021/10/21 03:53:44;;;;;;;1.63;1.43;;;14.90;99.90;;;;;;5026767;28;20208;-67
2021/10/21 03:56:09;;;;;;;2.20;1.80;;;14.80;99.90;;;;;;5033881;28;20238;-67
2021/10/21 03:58:36;;;;;;;1.40;1.30;;;14.90;99.90;;;;;;5046483;28;20197;-68
2021/10/21 04:01:02;;;;;;;1.37;1.27;;;14.80;99.90;;;;;;5046011;28;20180;-67
2021/10/21 04:03:28;;;;;;;1.83;1.73;;;14.80;99.90;;;;;;5046599;28;20493;-68
2021/10/21 04:05:54;;;;;;;1.43;1.13;;;14.70;99.90;;;;;;5046628;28;20483;-68
2021/10/21 04:08:19;;;;;;;1.37;1.33;;;14.70;99.90;;;;;;5045582;28;20195;-68
2021/10/21 04:10:45;;;;;;;1.47;1.37;;;14.70;99.90;;;;;;5046543;28;20173;-68
2021/10/21 04:13:11;;;;;;;1.33;0.90;;;14.70;99.90;;;;;;5046455;28;20170;-70
2021/10/21 04:15:36;;;;;;;1.00;0.97;;;14.70;99.90;;;;;;5046469;28;20177;-67
2021/10/21 04:18:02;;;;;;;1.60;1.50;;;14.70;99.90;;;;;;5046125;28;20526;-68
2021/10/21 04:20:28;;;;;;;1.10;1.10;;;14.70;99.90;;;;;;5046564;28;20278;-68
2021/10/21 04:22:53;;;;;;;1.20;1.00;;;14.60;99.90;;;;;;5045350;28;20177;-68
2021/10/21 04:25:19;;;;;;;1.53;1.00;;;14.60;99.90;;;;;;5046165;28;20282;-67
2021/10/21 04:27:45;;;;;;;0.70;0.70;;;14.60;99.90;;;;;;5045903;28;20208;-67
2021/10/21 04:30:12;;;;;;;0.50;0.50;;;14.60;99.90;;;;;;5044027;28;20173;-67
2021/10/21 04:32:38;;;;;;;0.90;0.90;;;14.60;99.90;;;;;;5046340;28;20402;-68
2021/10/21 04:35:04;;;;;;;0.60;0.60;;;14.50;99.90;;;;;;5046241;28;20469;-68
2021/10/21 04:37:30;;;;;;;0.77;0.77;;;14.50;99.90;;;;;;5045906;28;20232;-70
2021/10/21 04:39:55;;;;;;;1.57;0.67;;;14.40;99.90;;;;;;5046159;28;20408;-68
2021/10/21 04:42:21;;;;;;;0.87;0.87;;;14.40;99.90;;;;;;5046261;28;20293;-68
2021/10/21 04:44:47;;;;;;;1.10;1.10;;;14.40;99.90;;;;;;5046172;28;20174;-66
2021/10/21 04:47:13;;;;;;;0.63;0.63;;;14.40;99.90;;;;;;5027482;28;20459;-68
2021/10/21 04:49:39;;;;;;;0.40;0.40;;;14.30;99.90;;;;;;5026504;28;20430;-68
2021/10/21 04:52:04;;;;;;;0.60;0.60;;;14.30;99.90;;;;;;5026419;28;20275;-68
2021/10/21 04:54:30;;;;;;;0.80;0.80;;;14.30;99.90;;;;;;5025697;28;20471;-67
2021/10/21 04:56:56;;;;;;;1.50;0.50;;;14.30;99.90;;;;;;5041551;28;20169;-67
2021/10/21 04:59:21;;;;;;;1.00;0.53;;;14.20;99.90;;;;;;5049537;28;20322;-68
2021/10/21 05:01:47;;;;;;;1.37;1.27;;;14.20;99.90;;;;;;5044456;28;20223;-69
2021/10/21 05:04:13;;;;;;;1.47;1.47;;;14.10;99.90;;;;;;5055425;28;20180;-68
2021/10/21 05:06:38;;;;;;;4.20;1.27;;;14.10;99.90;;;;;;5048868;28;20228;-68
2021/10/21 05:09:04;;;;;;;1.60;0.70;;;14.10;99.90;;;;;;5044121;28;20208;-68
2021/10/21 05:11:30;;;;;;;3.33;0.70;;;14.10;99.90;;;;;;5049050;28;20178;-68
2021/10/21 05:13:55;;;;;;;0.73;0.73;;;14.00;99.90;;;;;;5048764;28;20239;-68
2021/10/21 05:16:21;;;;;;;1.17;0.40;;;14.00;99.90;;;;;;5045260;28;20170;-67
2021/10/21 05:18:46;;;;;;;1.60;0.70;;;13.90;99.90;;;;;;5047694;28;20432;-67
2021/10/21 05:21:13;;;;;;;0.80;0.50;;;13.90;99.90;;;;;;5047426;28;20219;-68
2021/10/21 05:23:38;;;;;;;5.80;0.57;;;13.90;99.90;;;;;;5045579;28;20186;-67
2021/10/21 05:26:04;;;;;;;0.80;0.80;;;13.80;99.90;;;;;;5047455;28;20502;-67
2021/10/21 05:28:30;;;;;;;0.30;0.30;;;13.80;99.90;;;;;;5046011;28;20399;-67
2021/10/21 05:30:55;;;;;;;0.80;0.53;;;13.70;99.90;;;;;;5047405;28;20192;-67
2021/10/21 05:33:23;;;;;;;25.57;0.80;;;13.60;99.90;;;;;;5047808;28;20310;-67
2021/10/21 05:35:49;;;;;;;0.63;0.50;;;13.60;99.90;;;;;;5048988;28;20244;-67
2021/10/21 05:38:15;;;;;;;1.80;0.47;;;13.60;99.90;;;;;;5048610;28;20426;-67
2021/10/21 05:40:41;;;;;;;3.43;0.80;;;13.50;99.90;;;;;;5048214;28;20586;-67
2021/10/21 05:43:07;;;;;;;7.03;1.17;;;13.50;99.90;;;;;;5041691;28;20433;-67
2021/10/21 05:45:32;;;;;;;0.80;0.60;;;13.50;99.90;;;;;;5067640;28;20355;-66
2021/10/21 05:47:58;;;;;;;1.07;0.63;;;13.50;99.90;;;;;;5047051;28;20208;-67
2021/10/21 05:50:24;;;;;;;0.83;0.83;;;13.50;99.90;;;;;;5028901;28;20188;-66
2021/10/21 05:52:50;;;;;;;1.07;0.87;;;13.50;99.90;;;;;;5028770;28;20165;-67
2021/10/21 05:55:15;;;;;;;0.93;0.60;;;13.50;99.90;;;;;;5028610;28;20474;-67
2021/10/21 05:57:41;;;;;;;1.23;0.63;;;13.50;99.90;;;;;;5028552;28;20241;-67
2021/10/21 06:00:09;;;;;;;2.07;0.50;;;13.50;99.90;;;;;;5034699;28;20180;-67
2021/10/21 06:02:35;;;;;;;0.70;0.70;;;13.50;99.90;;;;;;5048516;28;20172;-67
2021/10/21 06:05:02;;;;;;;9.53;1.10;;;13.50;99.90;;;;;;5047328;28;20396;-68
2021/10/21 06:07:27;;;;;;;0.70;0.40;;;13.50;99.90;;;;;;5047341;28;20466;-68
2021/10/21 06:09:56;;;;;;;0.80;0.50;;;13.50;99.90;;;;;;5047695;28;20402;-66
2021/10/21 06:12:23;;;;;;;2.78;0.80;;;13.50;99.90;;;;;;5048000;28;20395;-68
2021/10/21 06:14:49;;;;;;;0.63;0.50;;;13.50;99.90;;;;;;5046586;28;20210;-68
2021/10/21 06:17:15;;;;;;;0.70;0.67;;;13.50;99.90;;;;;;5047727;28;20406;-68
2021/10/21 06:19:40;;;;;;;0.43;0.43;;;13.50;99.90;;;;;;5046376;28;20417;-67
2021/10/21 06:22:09;;;;;;;0.87;0.70;;;13.50;99.90;;;;;;5047808;28;20365;-66
2021/10/21 06:24:35;;;;;;;1.77;0.90;;;13.60;99.90;;;;;;5048125;28;20175;-68
2021/10/21 06:27:01;;;;;;;1.40;0.53;;;13.60;99.90;;;;;;5045639;28;20426;-67
2021/10/21 06:29:27;;;;;;;0.47;0.47;;;13.60;99.90;;;;;;5048020;28;20497;-67
2021/10/21 06:31:53;;;;;;;4.03;1.03;;;13.60;99.90;;;;;;5046376;28;20359;-67
2021/10/21 06:34:20;;;;;;;0.67;0.67;;;13.60;99.90;;;;;;5047920;28;20456;-67
2021/10/21 06:36:46;;;;;;;2.50;1.27;;;13.70;99.90;;;;;;5047313;28;20502;-68
2021/10/21 06:39:11;;;;;;;0.83;0.40;;;13.70;99.90;;;;;;5027376;28;20443;-67
2021/10/21 06:41:37;;;;;;;3.27;0.70;;;13.70;99.90;;;;;;5027998;28;20509;-67
2021/10/21 06:44:04;;;;;;;2.20;0.70;;;13.60;99.90;;;;;;5028855;28;20344;-67
2021/10/21 06:46:30;;;;;;;0.83;0.40;;;13.60;99.90;;;;;;5036745;28;20465;-66
2021/10/21 06:48:58;;;;;;;3.37;1.00;;;13.60;99.90;;;;;;5030178;28;20442;-68
2021/10/21 06:51:24;;;;;;;0.60;0.50;;;13.60;99.90;;;;;;5047417;28;20411;-68
2021/10/21 06:53:50;;;;;;;0.70;0.60;;;13.70;99.90;;;;;;5047378;28;20556;-68
2021/10/21 06:56:15;;;;;;;1.70;1.17;;;13.80;99.90;;;;;;5045636;28;20449;-68
2021/10/21 06:58:41;;;;;;;1.40;0.70;;;13.80;99.90;;;;;;5046999;28;20301;-67
2021/10/21 07:01:06;;;;;;;0.43;0.43;;;13.80;99.90;;;;;;5041416;28;20202;-67
2021/10/21 07:03:32;;;;;;;1.83;0.60;;;13.90;99.90;;;;;;5027566;28;20161;-67
2021/10/21 07:05:58;;;;;;;1.13;1.13;;;14.00;99.90;;;;;;5028405;28;20177;-67
2021/10/21 07:08:26;;;;;;;0.70;0.40;;;14.10;99.90;;;;;;5027122;28;20305;-67
2021/10/21 07:10:52;;;;;;;3.23;0.80;;;14.20;99.90;;;;;;5027466;28;20399;-67
2021/10/21 07:13:18;;;;;;;3.87;0.87;;;14.40;99.90;;;;;;5044130;28;20658;-67
2021/10/21 07:15:43;;;;;;;0.60;0.53;;;14.50;99.90;;;;;;5046984;28;20420;-66
2021/10/21 07:18:09;;;;;;;0.70;0.70;;;14.50;99.60;;;;;;5046505;28;20260;-67
2021/10/21 07:20:35;;;;;;;1.33;0.63;;;14.60;99.40;;;;;;5046523;28;20181;-68
2021/10/21 07:23:00;;;;;;;0.40;0.40;;;14.70;99.30;;;;;;5045266;28;20181;-67
2021/10/21 07:25:29;;;;;;;1.57;1.20;;;14.70;98.80;;;;;;5047002;28;20177;-66
2021/10/21 07:27:58;;;;;;;0.70;0.43;;;14.70;98.80;;;;;;5046305;28;20204;-66
2021/10/21 07:30:26;;;;;;;3.03;0.50;;;14.60;98.40;;;;;;5046374;28;20523;-66
2021/10/21 07:32:52;;;;;;;0.93;0.93;;;14.60;98.10;;;;;;5045041;28;20502;-66
2021/10/21 07:35:18;;;;;;;2.60;0.57;;;14.60;98.70;;;;;;5029489;28;20482;-66
2021/10/21 07:37:44;;;;;;;1.03;0.53;;;14.60;98.30;;;;;;5044730;28;20410;-67
2021/10/21 07:40:10;;;;;;;0.93;0.63;;;14.60;98.70;;;;;;5046770;28;20405;-67
2021/10/21 07:42:40;;;;;;;2.63;0.40;;;14.70;98.30;;;;;;5046719;28;20414;-68
2021/10/21 07:45:07;;;;;;;0.80;0.50;;;14.80;98.50;;;;;;5043526;28;20416;-67
2021/10/21 07:47:34;;;;;;;0.40;0.40;;;14.80;97.90;;;;;;5046057;28;20498;-67
2021/10/21 07:50:00;;;;;;;1.77;0.50;;;14.90;98.00;;;;;;5045078;28;20572;-67
2021/10/21 07:52:26;;;;;;;1.93;0.53;;;15.00;98.00;;;;;;5046711;28;20415;-66
2021/10/21 07:54:52;;;;;;;1.60;0.40;;;15.00;97.70;;;;;;5044726;28;20551;-67
2021/10/21 07:57:20;;;;;;;3.37;0.60;;;15.00;97.40;;;;;;5046212;28;20373;-66
2021/10/21 07:59:46;;;;;;;0.33;0.27;;;14.90;97.00;;;;;;5033811;28;20433;-67
2021/10/21 08:02:13;;;;;;;1.80;1.67;;;15.00;97.20;;;;;;5027684;28;20432;-67
2021/10/21 08:04:39;;;;;;;0.50;0.30;;;15.10;97.40;;;;;;5026822;28;20417;-66
2021/10/21 08:07:05;;;;;;;1.80;0.63;;;15.20;97.30;;;;;;5026383;28;20408;-67
2021/10/21 08:09:31;;;;;;;1.37;0.50;;;15.40;97.00;;;;;;5026671;28;20416;-66
2021/10/21 08:12:03;;;;;;;0.60;0.50;;;15.80;96.80;;;;;;5026832;28;20477;-66
2021/10/21 08:14:29;;;;;;;1.17;0.43;;;16.40;95.80;;;;;;5026521;28;20453;-67
2021/10/21 08:16:55;;;;;;;0.60;0.60;;;17.20;95.60;;;;;;5026412;28;20373;-66
2021/10/21 08:19:21;;;;;;;1.73;0.50;;;18.10;93.80;;;;;;5026598;28;20434;-67
2021/10/21 08:21:47;;;;;;;0.50;0.50;;;18.30;92.60;;;;;;5026511;28;20647;-67
2021/10/21 08:24:14;;;;;;;0.60;0.30;;;18.10;91.80;;;;;;5025679;28;20430;-66
2021/10/21 08:26:41;;;;;;;2.50;0.70;;;17.90;91.80;;;;;;5026294;28;20381;-67
2021/10/21 08:29:07;;;;;;;1.20;0.83;;;17.80;92.10;;;;;;5026359;28;20497;-67
2021/10/21 08:31:33;;;;;;;0.83;0.50;;;17.90;92.60;;;;;;5041855;28;20430;-66
2021/10/21 08:33:59;;;;;;;0.83;0.40;;;18.10;92.30;;;;;;5050039;28;20435;-67
2021/10/21 08:36:25;;;;;;;0.60;0.40;;;18.60;92.10;;;;;;5059815;28;20407;-67
2021/10/21 08:38:51;;;;;;;0.50;0.50;;;18.80;91.20;;;;;;5069852;28;20196;-67
2021/10/21 08:41:19;;;;;;;0.37;0.30;;;18.70;91.30;;;;;;5070059;28;20158;-66
2021/10/21 08:43:45;;;;;;;0.70;0.40;;;18.70;91.10;;;;;;5049828;28;20481;-68
2021/10/21 08:46:14;;;;;;;0.43;0.30;;;18.40;91.20;;;;;;5050258;28;20402;-66
2021/10/21 08:48:41;;;;;;;0.60;0.30;;;18.40;91.00;;;;;;5049490;28;20435;-67
2021/10/21 08:51:09;;;;;;;0.60;0.50;;;18.50;91.80;;;;;;5049121;28;20479;-67
2021/10/21 08:53:35;;;;;;;2.97;0.73;;;18.60;91.40;;;;;;5045460;28;20439;-68
2021/10/21 08:56:01;;;;;;;1.07;0.60;;;18.20;91.40;;;;;;5049372;28;20415;-67
2021/10/21 08:58:28;;;;;;;0.70;0.60;;;17.90;92.00;;;;;;5049355;28;20399;-67
2021/10/21 09:01:32;;;;;;;0.80;0.47;;;17.60;93.00;;;;;;5034678;28;20167;-65
2021/10/21 09:04:02;;;;;;;0.67;0.53;;;17.30;92.60;;;;;;5025965;28;20512;-66
2021/10/21 09:09:16;;;;;;;0.77;0.57;;;16.50;94.30;;;;;;5029847;28;20529;-64
2021/10/21 09:11:43;;;;;;;1.17;0.40;;;16.60;95.30;;;;;;5029796;28;20381;-70
2021/10/21 09:14:13;;;;;;;1.17;0.40;;;17.00;94.80;;;;;;5029510;28;20588;-72
2021/10/21 09:16:42;;;;;;;0.87;0.50;;;17.70;94.00;;;;;;5012346;28;20445;-70
2021/10/21 09:19:10;;;;;;;0.30;0.30;;;18.20;93.50;;;;;;5029514;28;20442;-72
2021/10/21 09:21:38;;;;;;;0.50;0.30;;;18.40;92.20;;;;;;5033191;28;20410;-70
2021/10/21 09:24:27;;;;;;;0.47;0.40;;;18.60;92.50;;;;;;5053756;28;20404;-73
2021/10/21 09:27:04;;;;;;;1.03;0.50;;;19.10;92.60;;;;;;5068770;28;20399;-71
2021/10/21 09:29:32;;;;;;;0.43;0.30;;;19.80;91.60;;;;;;5069028;28;20499;-71
2021/10/21 09:32:24;;;;;;;2.00;0.40;;;20.20;90.20;;;;;;5069058;28;20382;-69
2021/10/21 09:35:03;;;;;;;0.90;0.60;;;20.20;89.80;;;;;;5068939;28;20761;-70
2021/10/21 09:37:41;;;;;;;0.67;0.67;;;20.50;88.50;;;;;;5068803;28;20511;-70
2021/10/21 09:40:10;;;;;;;0.30;0.30;;;20.80;87.90;;;;;;5030135;28;20408;-70
2021/10/21 09:42:45;;;;;;;0.40;0.40;;;21.00;87.40;;;;;;5029932;28;20461;-69
2021/10/21 09:45:20;;;;;;;0.30;0.27;;;21.20;85.40;;;;;;5048621;28;20624;-69
2021/10/21 09:47:50;;;;;;;0.63;0.53;;;20.90;84.90;;;;;;5048495;28;20502;-70
2021/10/21 09:50:36;;;;;;;0.50;0.30;;;20.20;85.30;;;;;;5048718;28;20563;-68
2021/10/21 09:53:14;;;;;;;0.30;0.30;;;19.40;88.30;;;;;;5039445;28;20441;-69
2021/10/21 09:55:42;;;;;;;0.40;0.40;;;19.10;89.80;;;;;;5031929;28;20465;-69
2021/10/21 09:58:10;;;;;;;1.70;0.50;;;19.00;89.90;;;;;;5039482;28;20464;-69
2021/10/21 10:00:38;;;;;;;0.30;0.30;;;19.00;90.60;;;;;;5030190;28;20408;-70
2021/10/21 10:03:12;;;;;;;0.30;0.20;;;19.20;90.80;;;;;;5044053;28;20431;-69
2021/10/21 10:05:39;;;;;;;0.40;0.30;;;19.60;89.90;;;;;;5047933;28;20455;-69
2021/10/21 10:08:10;;;;;;;0.37;0.37;;;20.00;86.80;;;;;;5048014;28;20509;-70
2021/10/21 10:10:40;;;;;;;0.50;0.30;;;20.20;85.00;;;;;;5048458;28;20722;-69
2021/10/21 10:13:07;;;;;;;0.40;0.40;;;20.40;83.60;;;;;;5048141;28;20375;-71
2021/10/21 10:15:35;;;;;;;0.57;0.50;;;20.30;83.10;;;;;;5048282;28;20429;-69
2021/10/21 10:18:02;;;;;;;0.70;0.33;;;20.30;83.30;;;;;;5048035;28;20442;-70
2021/10/21 10:20:29;;;;;;;1.03;0.40;;;20.20;83.40;;;;;;5048183;28;20375;-70
2021/10/21 10:22:56;;;;;;;0.30;0.30;;;20.20;83.20;;;;;;5048233;28;20425;-69
2021/10/21 10:25:22;;;;;;;0.50;0.40;;;20.10;82.70;;;;;;5048197;28;20508;-70
2021/10/21 10:27:55;;;;;;;0.83;0.30;;;20.30;82.90;;;;;;5047443;28;20431;-70
2021/10/21 10:30:47;;;;;;;1.00;0.60;;;20.50;82.20;;;;;;5047897;28;20323;-67
2021/10/21 10:33:34;;;;;;;0.30;0.30;;;20.80;82.00;;;;;;5047786;28;20478;-67
2021/10/21 10:36:21;;;;;;;1.37;1.10;;;20.70;80.00;;;;;;5040935;28;20428;-68
2021/10/21 10:38:48;;;;;;;0.50;0.30;;;20.90;82.10;;;;;;5047557;28;20437;-69
2021/10/21 10:41:33;;;;;;;0.90;0.50;;;21.10;80.30;;;;;;5046866;28;20404;-68
2021/10/21 10:43:59;;;;;;;0.80;0.63;;;21.20;78.20;;;;;;5047547;28;20550;-70
2021/10/21 10:46:46;;;;;;;1.53;0.80;;;21.20;77.30;;;;;;5047705;28;20379;-69
2021/10/21 10:49:38;;;;;;;0.70;0.70;;;21.10;77.30;;;;;;5047616;28;20202;-70
2021/10/21 10:52:05;;;;;;;0.40;0.30;;;21.00;76.60;;;;;;5047975;28;20508;-70
2021/10/21 10:54:54;;;;;;;0.43;0.43;;;20.80;77.40;;;;;;5046603;28;20531;-69
2021/10/21 10:57:26;;;;;;;0.30;0.30;;;20.60;77.90;;;;;;5030092;28;20388;-69
2021/10/21 10:59:59;;;;;;;6.37;0.90;;;20.40;77.60;;;;;;5027700;28;20600;-70
2021/10/21 11:02:24;;;;;;;0.63;0.50;;;19.80;79.20;;;;;;5027736;28;20377;-69
2021/10/21 11:04:57;;;;;;;1.70;0.40;;;19.30;79.90;;;;;;5027653;28;20473;-69
2021/10/21 11:07:39;;;;;;;1.13;0.50;;;18.80;79.80;;;;;;5027280;28;20392;-70
2021/10/21 11:10:15;;;;;;;0.57;0.50;;;18.30;80.70;;;;;;5027614;28;20392;-69
2021/10/21 11:12:41;;;;;;;0.50;0.50;;;17.70;83.10;;;;;;5027547;28;20376;-68
2021/10/21 11:15:29;;;;;;;0.50;0.40;;;17.50;84.00;;;;;;5027477;28;20434;-69
2021/10/21 11:17:59;;;;;;;0.90;0.90;;;17.30;85.00;;;;;;5026099;28;20489;-70
2021/10/21 11:20:27;;;;;;;1.90;0.47;;;17.00;83.60;;;;;;5027259;28;20397;-68
2021/10/21 11:23:04;;;;;;;1.13;0.60;;;16.80;83.80;;;;;;5027346;28;20392;-68
2021/10/21 11:25:37;;;;;;;1.17;0.53;;;16.60;84.50;;;;;;5027327;28;20377;-69
2021/10/21 11:28:04;;;;;;;0.43;0.43;;;16.40;85.50;;;;;;5026976;28;20425;-69
2021/10/21 11:30:33;;;;;;;0.50;0.47;;;16.20;85.90;;;;;;5027153;28;20382;-67
2021/10/21 11:33:01;;;;;;;0.53;0.50;;;16.20;86.90;;;;;;5027186;28;20405;-68
2021/10/21 11:35:28;;;;;;;1.70;0.40;;;16.20;87.60;;;;;;5025939;28;20516;-70
2021/10/21 11:38:05;;;;;;;0.70;0.60;;;16.20;87.10;;;;;;5026843;28;20520;-69
2021/10/21 11:40:34;;;;;;;0.70;0.57;;;16.30;87.50;;;;;;5027212;28;20380;-68
2021/10/21 11:43:05;;;;;;;0.50;0.50;;;16.40;87.10;;;;;;5026109;28;20698;-69
2021/10/21 11:45:36;;;;;;;1.30;1.20;;;16.50;86.40;;;;;;5027003;28;20487;-68
2021/10/21 11:48:08;;;;;;;1.10;1.10;;;16.60;86.30;;;;;;5026597;28;20457;-70
2021/10/21 11:50:36;;;;;;;2.10;0.77;;;16.70;85.30;;;;;;5026947;28;20580;-69
2021/10/21 11:53:03;;;;;;;2.20;1.10;;;16.80;85.00;;;;;;5026196;28;20696;-70
2021/10/21 11:55:30;;;;;;;1.13;0.77;;;16.80;85.20;;;;;;5026648;28;20437;-68
2021/10/21 11:57:57;;;;;;;2.53;1.47;;;17.00;86.00;;;;;;5026593;28;20386;-71
2021/10/21 12:00:28;;;;;;;0.70;0.60;;;17.10;85.40;;;;;;5026930;28;20378;-68
2021/10/21 12:02:59;;;;;;;0.57;0.57;;;17.10;85.50;;;;;;5026849;28;20415;-69
2021/10/21 12:05:40;;;;;;;0.80;0.80;;;17.00;84.50;;;;;;5028019;28;20397;-69
2021/10/21 12:08:08;;;;;;;0.67;0.50;;;16.80;84.00;;;;;;5030263;28;20427;-70
2021/10/21 12:10:36;;;;;;;0.40;0.40;;;16.80;84.30;;;;;;5030627;28;20410;-69
2021/10/21 12:13:04;;;;;;;1.20;0.50;;;16.80;85.00;;;;;;5030976;28;20394;-68
2021/10/21 12:15:33;;;;;;;0.50;0.50;;;16.90;85.20;;;;;;5030645;28;20715;-68
2021/10/21 12:18:04;;;;;;;0.40;0.33;;;17.10;85.90;;;;;;5030115;28;20419;-70
2021/10/21 12:20:52;;;;;;;1.50;0.70;;;17.40;84.20;;;;;;5040757;28;20426;-71
2021/10/21 12:23:19;;;;;;;1.00;0.60;;;17.50;83.30;;;;;;5049463;28;20490;-69
2021/10/21 12:25:52;;;;;;;1.17;0.73;;;17.50;82.60;;;;;;5036148;28;20456;-69
2021/10/21 12:28:18;;;;;;;2.23;0.50;;;17.60;83.20;;;;;;5030154;28;20443;-67
2021/10/21 12:30:45;;;;;;;1.17;0.40;;;17.70;82.80;;;;;;5029313;28;20445;-68
2021/10/21 12:33:18;;;;;;;0.93;0.73;;;17.60;82.00;;;;;;5031212;28;20437;-68
2021/10/21 12:36:04;;;;;;;1.07;0.70;;;17.40;83.20;;;;;;5050453;28;20409;-68
2021/10/21 12:38:42;;;;;;;0.97;0.43;;;17.40;81.50;;;;;;5049822;28;20473;-67
2021/10/21 12:41:07;;;;;;;2.53;0.50;;;17.10;83.10;;;;;;5050083;28;20648;-70
2021/10/21 12:43:33;;;;;;;0.40;0.40;;;17.00;84.10;;;;;;5050053;28;20404;-69
2021/10/21 12:46:01;;;;;;;1.43;1.33;;;16.80;83.30;;;;;;5050102;28;20362;-68
2021/10/21 12:48:29;;;;;;;0.53;0.53;;;16.70;83.40;;;;;;5049551;28;20416;-68
2021/10/21 12:51:14;;;;;;;0.50;0.50;;;16.50;84.10;;;;;;5049909;28;20384;-68
2021/10/21 12:53:52;;;;;;;0.50;0.50;;;16.40;84.40;;;;;;5049799;28;20447;-67
2021/10/21 12:56:23;;;;;;;0.40;0.40;;;16.30;84.60;;;;;;5040872;28;20442;-68